createdAt,value
2024-05-09T00:03:48.145Z,7.82
2024-05-09T00:08:57.271Z,7.40
2024-05-09T00:13:50.660Z,8.13
2024-05-09T00:18:13.700Z,8.40
2024-05-09T00:22:37.121Z,7.78
2024-05-09T00:26:56.227Z,7.67
2024-05-09T00:31:32.333Z,7.03
2024-05-09T00:35:56.857Z,7.07
2024-05-09T00:40:26.561Z,7.20
2024-05-09T00:44:51.863Z,7.60
2024-05-09T00:49:16.030Z,7.32
2024-05-09T00:53:38.253Z,6.85
2024-05-09T00:57:58.131Z,8.63
2024-05-09T01:02:22.472Z,8.02
2024-05-09T01:06:46.267Z,7.00
2024-05-09T01:12:07.087Z,7.10
2024-05-09T01:16:27.163Z,13.43
2024-05-09T01:20:51.112Z,9.13
2024-05-09T01:25:15.820Z,8.07
2024-05-09T01:29:37.452Z,6.23
2024-05-09T01:34:00.899Z,8.05
2024-05-09T01:38:22.081Z,6.97
2024-05-09T01:42:47.559Z,10.93
2024-05-09T01:47:07.380Z,7.50
2024-05-09T01:51:29.313Z,8.65
2024-05-09T01:55:49.532Z,8.60
2024-05-09T02:00:22.103Z,9.38
2024-05-09T02:04:50.522Z,8.38
2024-05-09T02:09:11.970Z,8.75
2024-05-09T02:13:33.336Z,7.90
2024-05-09T02:17:57.088Z,13.20
2024-05-09T02:22:18.381Z,7.97
2024-05-09T02:26:39.454Z,8.40
2024-05-09T02:31:00.691Z,9.68
2024-05-09T02:35:29.171Z,10.02
2024-05-09T02:39:49.175Z,11.00
2024-05-09T02:44:12.147Z,8.88
2024-05-09T02:48:34.438Z,10.70
2024-05-09T02:52:59.638Z,9.27
2024-05-09T02:57:20.737Z,8.97
2024-05-09T03:01:40.752Z,8.30
2024-05-09T03:06:01.763Z,9.77
2024-05-09T03:10:28.949Z,8.37
2024-05-09T03:14:56.477Z,8.93
2024-05-09T03:19:17.678Z,9.25
2024-05-09T03:23:42.314Z,8.80
2024-05-09T03:28:07.699Z,10.95
2024-05-09T03:32:27.110Z,10.68
2024-05-09T03:36:55.791Z,7.45
2024-05-09T03:41:18.464Z,12.17
2024-05-09T03:45:45.597Z,15.45
2024-05-09T03:50:15.168Z,13.20
2024-05-09T03:54:47.948Z,14.50
2024-05-09T03:59:10.021Z,9.63
2024-05-09T04:03:31.428Z,11.02
2024-05-09T04:08:00.175Z,9.80
2024-05-09T04:12:26.290Z,10.50
2024-05-09T04:16:48.311Z,9.68
2024-05-09T04:21:11.390Z,9.23
2024-05-09T04:25:33.784Z,8.00
2024-05-09T04:29:54.755Z,9.15
2024-05-09T04:34:15.148Z,8.60
2024-05-09T04:38:38.852Z,10.90
2024-05-09T04:43:03.423Z,5.88
2024-05-09T04:47:24.862Z,9.00
2024-05-09T04:51:45.575Z,9.40
2024-05-09T04:56:07.644Z,9.02
2024-05-09T05:00:35.729Z,8.45
2024-05-09T05:04:58.339Z,10.25
2024-05-09T05:09:19.297Z,8.73
2024-05-09T05:13:44.007Z,8.50
2024-05-09T05:18:04.975Z,8.02
2024-05-09T05:22:25.803Z,8.93
2024-05-09T05:26:46.832Z,11.65
2024-05-09T05:31:11.345Z,8.50
2024-05-09T05:35:32.530Z,9.33
2024-05-09T05:39:53.357Z,9.90
2024-05-09T05:44:15.957Z,8.48
2024-05-09T05:48:38.331Z,9.43
2024-05-09T05:52:59.840Z,9.00
2024-05-09T05:57:20.976Z,9.13
2024-05-09T06:01:42.049Z,10.15
2024-05-09T06:06:06.867Z,8.83
2024-05-09T06:10:37.012Z,9.65
2024-05-09T06:15:00.896Z,7.85
2024-05-09T06:19:22.518Z,8.13
2024-05-09T06:23:53.335Z,8.43
2024-05-09T06:28:13.390Z,9.63
2024-05-09T06:32:35.095Z,10.18
2024-05-09T06:36:55.634Z,7.80
2024-05-09T06:41:19.455Z,8.65
2024-05-09T06:45:41.146Z,8.00
2024-05-09T06:50:02.621Z,7.97
2024-05-09T06:54:23.132Z,7.40
2024-05-09T06:58:47.072Z,7.75
2024-05-09T07:03:12.469Z,8.27
2024-05-09T07:07:32.653Z,6.75
2024-05-09T07:11:54.220Z,7.20
2024-05-09T07:16:17.723Z,6.95
2024-05-09T07:20:39.323Z,7.80
2024-05-09T07:25:00.511Z,6.68
2024-05-09T07:29:23.011Z,6.13
2024-05-09T07:33:48.563Z,6.97
2024-05-09T07:38:09.863Z,5.55
2024-05-09T07:42:30.979Z,6.18
2024-05-09T07:55:47.085Z,6.10
2024-05-09T08:00:11.710Z,6.72
2024-05-09T08:04:35.083Z,6.30
2024-05-09T08:09:02.771Z,6.20
2024-05-09T08:13:26.631Z,5.75
2024-05-09T08:17:47.587Z,4.90
2024-05-09T08:22:09.435Z,5.07
2024-05-09T08:26:32.480Z,5.88
2024-05-09T08:30:54.240Z,6.10
2024-05-09T08:35:15.214Z,5.47
2024-05-09T08:39:36.404Z,5.43
2024-05-09T08:44:00.135Z,4.97
2024-05-09T08:48:26.044Z,5.80
2024-05-09T08:52:46.027Z,5.97
2024-05-09T08:57:09.415Z,5.30
2024-05-09T09:01:34.172Z,5.43
2024-05-09T09:06:04.642Z,5.30
2024-05-09T09:10:31.787Z,6.55
2024-05-09T09:14:52.201Z,5.13
2024-05-09T09:19:16.729Z,6.50
2024-05-09T09:23:37.570Z,6.10
2024-05-09T09:27:58.815Z,5.38
2024-05-09T09:32:22.751Z,5.50
2024-05-09T09:36:47.448Z,5.50
2024-05-09T09:41:11.331Z,5.95
2024-05-09T09:45:33.738Z,4.90
2024-05-09T09:49:55.031Z,4.90
2024-05-09T09:54:21.270Z,5.80
2024-05-09T09:58:43.213Z,5.43
2024-05-09T10:03:03.143Z,5.07
2024-05-09T10:07:27.587Z,6.38
2024-05-09T10:11:52.400Z,5.40
2024-05-09T10:16:15.483Z,7.33
2024-05-09T10:20:46.536Z,5.72
2024-05-09T10:25:08.648Z,5.57
2024-05-09T10:29:30.914Z,6.20
2024-05-09T10:33:54.846Z,5.18
2024-05-09T10:38:15.511Z,5.80
2024-05-09T10:42:36.240Z,6.83
2024-05-09T10:46:58.571Z,7.03
2024-05-09T10:51:21.657Z,6.80
2024-05-09T10:55:41.096Z,5.30
2024-05-09T11:00:06.342Z,5.47
2024-05-09T11:04:32.494Z,6.20
2024-05-09T11:08:54.407Z,5.72
2024-05-09T11:13:15.023Z,5.67
2024-05-09T11:17:40.202Z,5.60
2024-05-09T11:22:03.491Z,6.25
2024-05-09T11:26:25.489Z,5.90
2024-05-09T11:30:45.805Z,6.70
2024-05-09T11:35:06.880Z,6.65
2024-05-09T11:39:30.551Z,6.00
2024-05-09T11:43:52.155Z,5.67
2024-05-09T11:48:13.175Z,5.93
2024-05-09T11:52:34.298Z,6.38
2024-05-09T11:56:58.023Z,5.80
2024-05-09T12:01:20.118Z,7.85
2024-05-09T12:05:40.888Z,6.00
2024-05-09T12:10:02.013Z,5.53
2024-05-09T12:14:25.872Z,6.20
2024-05-09T12:18:47.357Z,5.72
2024-05-09T12:23:09.964Z,5.38
2024-05-09T12:27:29.389Z,8.03
2024-05-09T12:31:53.354Z,7.18
2024-05-09T12:36:14.791Z,5.95
2024-05-09T12:40:38.625Z,6.17
2024-05-09T12:45:00.184Z,6.22
2024-05-09T12:49:25.689Z,6.13
2024-05-09T12:53:45.473Z,6.53
2024-05-09T12:58:09.465Z,9.27
2024-05-09T13:02:30.796Z,6.45
2024-05-09T13:06:54.654Z,6.65
2024-05-09T13:11:16.097Z,5.77
2024-05-09T13:15:37.565Z,5.60
2024-05-09T13:19:58.473Z,6.00
2024-05-09T13:24:21.987Z,6.73
2024-05-09T13:28:44.239Z,5.90
2024-05-09T13:33:08.735Z,5.35
2024-05-09T13:37:28.799Z,7.23
2024-05-09T13:41:52.622Z,6.22
2024-05-09T13:46:14.191Z,5.30
2024-05-09T13:50:36.815Z,6.80
2024-05-09T13:54:56.803Z,5.80
2024-05-09T13:59:20.419Z,5.82
2024-05-09T14:03:43.137Z,6.40
2024-05-09T14:08:02.972Z,8.13
2024-05-09T14:12:24.167Z,5.47
2024-05-09T14:16:47.885Z,6.63
2024-05-09T14:21:09.524Z,5.60
2024-05-09T14:25:31.937Z,5.45
2024-05-09T14:29:51.816Z,4.93
2024-05-09T14:34:15.691Z,5.47
2024-05-09T14:38:37.078Z,5.00
2024-05-09T14:43:47.963Z,4.72
2024-05-09T14:48:09.948Z,4.68
2024-05-09T14:52:32.146Z,5.40
2024-05-09T14:56:54.993Z,4.65
2024-05-09T15:01:14.895Z,6.30
2024-05-09T15:05:36.258Z,6.37
2024-05-09T15:09:59.576Z,6.75
2024-05-09T15:14:18.420Z,6.40
2024-05-09T15:18:41.371Z,4.80
2024-05-09T15:23:03.946Z,4.53
2024-05-09T15:27:27.364Z,4.72
2024-05-09T15:31:48.859Z,7.95
2024-05-09T15:36:11.032Z,5.13
2024-05-09T15:40:36.202Z,5.70
2024-05-09T15:45:03.988Z,5.82
2024-05-09T15:49:25.890Z,5.70
2024-05-09T15:53:46.755Z,4.97
2024-05-09T15:58:11.301Z,5.20
2024-05-09T16:02:34.960Z,4.63
2024-05-09T16:06:56.529Z,6.90
2024-05-09T16:11:19.582Z,5.72
2024-05-09T16:15:41.703Z,5.53
2024-05-09T16:20:09.347Z,6.73
2024-05-09T16:24:36.240Z,6.75
2024-05-09T16:28:57.409Z,5.70
2024-05-09T16:33:19.424Z,5.43
2024-05-09T16:37:42.550Z,5.00
2024-05-09T16:42:07.326Z,6.18
2024-05-09T16:46:28.340Z,5.43
2024-05-09T16:50:46.573Z,5.97
2024-05-09T16:55:10.059Z,5.70
2024-05-09T16:59:31.291Z,5.47
2024-05-09T17:03:52.841Z,5.87
2024-05-09T17:08:13.736Z,5.07
2024-05-09T17:12:37.291Z,5.03
2024-05-09T17:16:59.121Z,5.07
2024-05-09T17:21:20.134Z,5.55
2024-05-09T17:25:38.623Z,5.20
2024-05-09T17:30:01.831Z,6.43
2024-05-09T17:34:23.381Z,4.90
2024-05-09T17:38:44.577Z,5.55
2024-05-09T17:43:07.657Z,5.22
2024-05-09T17:47:37.620Z,5.30
2024-05-09T17:51:57.406Z,5.18
2024-05-09T17:56:18.438Z,6.35
2024-05-09T18:00:42.807Z,6.60
2024-05-09T18:05:06.309Z,5.95
2024-05-09T18:09:27.790Z,6.85
2024-05-09T18:13:49.145Z,7.43
2024-05-09T18:18:11.090Z,6.47
2024-05-09T18:22:40.650Z,5.50
2024-05-09T18:27:02.770Z,4.88
2024-05-09T18:31:26.034Z,5.83
2024-05-09T18:35:48.753Z,5.50
2024-05-09T18:40:21.131Z,5.10
2024-05-09T18:44:47.510Z,5.50
2024-05-09T18:49:09.525Z,11.27
2024-05-09T18:53:29.769Z,6.90
2024-05-09T18:57:54.145Z,6.50
2024-05-09T19:02:15.847Z,7.67
2024-05-09T19:06:36.707Z,8.38
2024-05-09T19:10:57.521Z,8.32
2024-05-09T19:15:21.521Z,9.10
2024-05-09T19:19:43.059Z,8.85
2024-05-09T19:24:04.013Z,7.43
2024-05-09T19:28:25.184Z,9.87
2024-05-09T19:32:48.580Z,9.57
2024-05-09T19:37:10.631Z,9.50
2024-05-09T19:41:31.311Z,6.28
2024-05-09T19:45:54.464Z,6.70
2024-05-09T19:50:26.644Z,8.32
2024-05-09T19:54:54.067Z,7.80
2024-05-09T19:59:15.410Z,8.53
2024-05-09T20:03:37.224Z,8.25
2024-05-09T20:08:00.382Z,6.80
2024-05-09T20:12:21.645Z,8.50
2024-05-09T20:16:42.545Z,7.07
2024-05-09T20:21:04.697Z,6.97
2024-05-09T20:25:27.569Z,8.75
2024-05-09T20:29:49.097Z,6.40
2024-05-09T20:34:10.132Z,6.85
2024-05-09T20:38:31.289Z,7.53
2024-05-09T20:42:55.220Z,8.40
2024-05-09T20:47:16.617Z,7.97
2024-05-09T20:51:37.918Z,8.20
2024-05-09T20:55:58.941Z,8.87
2024-05-09T21:00:30.008Z,10.13
2024-05-09T21:04:56.601Z,11.38
2024-05-09T21:09:17.607Z,8.75
2024-05-09T21:13:38.944Z,7.87
2024-05-09T21:18:02.589Z,6.93
2024-05-09T21:22:24.124Z,8.57
2024-05-09T21:26:45.283Z,7.37
2024-05-09T21:31:15.671Z,7.10
2024-05-09T21:35:39.523Z,8.10
2024-05-09T21:40:01.104Z,8.77
2024-05-09T21:44:22.081Z,7.95
2024-05-09T21:48:43.179Z,8.68
2024-05-09T21:53:07.346Z,8.15
2024-05-09T21:57:28.436Z,7.90
2024-05-09T22:01:49.762Z,7.65
2024-05-09T22:06:11.233Z,8.50
2024-05-09T22:10:36.459Z,7.13
2024-05-09T22:14:56.105Z,7.47
2024-05-09T22:19:17.215Z,7.82
2024-05-09T22:23:38.274Z,7.10
2024-05-09T22:28:02.699Z,6.60
2024-05-09T22:32:23.558Z,8.73
2024-05-09T22:36:44.713Z,7.97
2024-05-09T22:41:09.374Z,7.53
2024-05-09T22:45:32.890Z,7.30
2024-05-09T22:49:54.316Z,7.05
2024-05-09T22:54:15.409Z,6.87
2024-05-09T22:58:36.530Z,8.45
2024-05-09T23:03:00.339Z,9.32
2024-05-09T23:07:21.957Z,7.73
2024-05-09T23:11:45.782Z,7.47
2024-05-09T23:16:07.597Z,7.70
2024-05-09T23:20:37.142Z,8.57
2024-05-09T23:24:58.734Z,7.27
2024-05-09T23:29:19.710Z,6.10
2024-05-09T23:33:48.024Z,6.78
2024-05-09T23:38:10.859Z,7.67
2024-05-09T23:42:32.602Z,7.47
2024-05-09T23:46:53.521Z,6.93
2024-05-09T23:51:14.644Z,9.67
2024-05-09T23:55:38.470Z,7.35
